MUVR/VRA METAR and TAF weather

Enter ICAO airport designator
Station Type Date Time Source
MUVR METAR 2019/02/18 03:50 UTC NOAA

MUVR 180350Z 15004KT 100V170 9000 NSC 23/22 Q1017


Station Type Date Time Source
MUVR Decoded METAR 2019/02/18 03:50 UTC NOAA

Varadero, Matanzas, Cuba (MUVR) 23-08N 081-17W 3M
Feb 17, 2019 - 10:50 PM EST / 2019.02.18 0350 UTC
Wind: from the SSE (150 degrees) at 5 MPH (4 KT) (direction variable):0
Visibility: 5 mile(s):0
Temperature: 73 F (23 C)
Dew Point: 71 F (22 C)
Relative Humidity: 94%
Pressure (altimeter): 30.03 in. Hg (1017 hPa)
ob: MUVR 180350Z 15004KT 100V170 9000 NSC 23/22 Q1017
cycle: 4

Station Type Date Time Source
MUVR TAF 2019/02/17 18:03 UTC NOAA

TAF MUVR 171700Z 1718/1818 16010KT 9000 SCT020
BECMG 1801/1803 VRB03KT
BECMG 1813/1815 16010KT


Example: see airport list